createdAt,value
2019-01-22T00:02:38.033Z,64.53
2019-01-22T00:07:43.947Z,64.80
2019-01-22T00:12:49.576Z,63.45
2019-01-22T00:17:55.573Z,64.53
2019-01-22T00:23:02.992Z,64.42
2019-01-22T00:28:09.035Z,64.45
2019-01-22T00:33:15.875Z,64.76
2019-01-22T00:38:22.572Z,63.98
2019-01-22T00:43:28.224Z,63.92
2019-01-22T00:48:33.892Z,63.17
2019-01-22T00:53:39.583Z,65.09
2019-01-22T00:58:45.183Z,64.93
2019-01-22T01:03:50.817Z,63.50
2019-01-22T01:08:56.389Z,63.93
2019-01-22T01:14:02.034Z,64.39
2019-01-22T01:19:07.700Z,63.73
2019-01-22T01:24:13.363Z,64.00
2019-01-22T01:29:19.316Z,66.17
2019-01-22T01:34:24.950Z,65.08
2019-01-22T01:39:30.530Z,64.52
2019-01-22T01:44:36.581Z,64.88
2019-01-22T01:49:43.471Z,64.93
2019-01-22T01:54:49.348Z,64.46
2019-01-22T01:59:54.998Z,67.44
2019-01-22T02:05:00.638Z,66.18
2019-01-22T02:10:07.708Z,65.03
2019-01-22T02:15:18.342Z,65.52
2019-01-22T02:20:40.395Z,64.40
2019-01-22T02:26:21.850Z,65.94
2019-01-22T02:31:57.742Z,64.62
2019-01-22T02:37:43.032Z,65.31
2019-01-22T02:43:15.768Z,65.66
2019-01-22T02:49:09.690Z,64.80
2019-01-22T02:54:21.246Z,64.63
2019-01-22T03:00:10.444Z,64.11
2019-01-22T16:10:29.146Z,59.21
2019-01-22T16:15:34.922Z,59.07
2019-01-22T16:20:41.285Z,59.27
2019-01-22T16:25:46.946Z,58.94
2019-01-22T16:30:53.023Z,59.34
2019-01-22T16:36:00.283Z,59.83
2019-01-22T16:41:06.884Z,60.81
2019-01-22T16:46:12.577Z,59.84
2019-01-22T16:51:18.220Z,60.09
2019-01-22T16:56:26.939Z,59.81
2019-01-22T17:06:37.795Z,59.83
2019-01-22T17:11:43.557Z,59.35
2019-01-22T17:16:49.346Z,59.37
2019-01-22T17:21:57.110Z,60.08
2019-01-22T17:27:07.267Z,59.73
2019-01-22T17:32:49.072Z,60.45
2019-01-22T17:37:54.780Z,60.77
2019-01-22T17:43:00.475Z,61.07
2019-01-22T17:48:07.074Z,60.76
2019-01-22T17:53:12.795Z,61.14
2019-01-22T17:58:19.727Z,61.93
2019-01-22T18:03:27.962Z,62.23
2019-01-22T18:08:33.700Z,62.24
2019-01-22T18:13:40.444Z,62.11
2019-01-22T18:18:46.530Z,61.37
2019-01-22T18:23:52.401Z,60.86
2019-01-22T18:28:58.114Z,60.73
2019-01-22T18:34:04.848Z,61.67
2019-01-22T18:39:12.619Z,61.22
2019-01-22T18:44:22.368Z,60.83
2019-01-22T18:49:29.532Z,60.62
2019-01-22T18:54:38.233Z,60.66
2019-01-22T18:59:44.478Z,61.25
2019-01-22T19:04:51.600Z,61.49
2019-01-22T19:09:57.332Z,61.53
2019-01-22T19:15:07.226Z,60.44
2019-01-22T19:20:14.855Z,61.93
2019-01-22T19:25:25.597Z,60.90
2019-01-22T19:30:32.306Z,60.76
2019-01-22T19:35:39.655Z,60.94
2019-01-22T19:40:45.679Z,60.81
2019-01-22T19:45:51.745Z,61.20
2019-01-22T19:50:57.870Z,61.55
2019-01-22T19:56:14.885Z,62.32
2019-01-22T20:01:22.099Z,61.88
2019-01-22T20:06:28.424Z,61.63
2019-01-22T20:11:36.380Z,60.41
2019-01-22T20:16:42.542Z,62.53
2019-01-22T20:21:49.633Z,62.08
2019-01-22T20:26:55.444Z,60.87
2019-01-22T20:32:12.114Z,60.96
2019-01-22T20:37:19.670Z,61.01
2019-01-22T20:42:25.396Z,61.92
2019-01-22T20:47:31.189Z,61.26
2019-01-22T20:52:36.944Z,61.20
2019-01-22T20:57:42.948Z,61.22
2019-01-22T21:02:50.750Z,61.62
2019-01-22T21:07:57.249Z,62.02
2019-01-22T21:13:05.743Z,63.06
2019-01-22T21:18:11.820Z,61.78
2019-01-22T21:23:18.782Z,62.45
2019-01-22T21:28:24.961Z,61.75
2019-01-22T21:33:31.581Z,61.89
2019-01-22T21:38:37.528Z,61.44
2019-01-22T21:43:43.241Z,62.18
2019-01-22T21:48:49.960Z,61.58
2019-01-22T21:53:55.653Z,61.60
2019-01-22T21:59:01.434Z,62.02
2019-01-22T22:04:09.788Z,61.19
2019-01-22T22:09:16.243Z,61.06
2019-01-22T22:14:22.283Z,61.78
2019-01-22T22:19:29.466Z,61.37
2019-01-22T22:24:36.664Z,61.61
2019-01-22T22:29:42.538Z,60.99
2019-01-22T22:34:48.204Z,61.57
2019-01-22T22:39:53.910Z,61.70
2019-01-22T22:45:00.525Z,61.40
2019-01-22T22:50:08.067Z,61.02
2019-01-22T22:55:13.721Z,60.88
2019-01-22T23:00:32.410Z,61.87
2019-01-22T23:05:39.612Z,61.01
2019-01-22T23:10:47.371Z,61.36
2019-01-22T23:15:54.092Z,61.92
2019-01-22T23:21:00.312Z,61.93
2019-01-22T23:26:09.308Z,61.68
2019-01-22T23:31:15.418Z,61.91
2019-01-22T23:36:21.011Z,61.48
2019-01-22T23:41:26.603Z,61.29
2019-01-22T23:46:33.001Z,61.07
2019-01-22T23:51:47.452Z,61.60
2019-01-22T23:56:54.677Z,60.48
